createdAt,value
2022-10-19T00:00:36.786Z,12.15
2022-10-19T00:03:28.844Z,12.14
2022-10-19T00:05:58.389Z,12.10
2022-10-19T00:08:28.901Z,12.11
2022-10-19T00:10:58.378Z,12.09
2022-10-19T00:13:27.576Z,12.07
2022-10-19T00:15:56.735Z,12.08
2022-10-19T00:18:25.868Z,12.03
2022-10-19T00:21:03.276Z,12.03
2022-10-19T00:23:34.137Z,11.99
2022-10-19T00:26:03.863Z,11.98
2022-10-19T00:28:33.378Z,11.92
2022-10-19T00:31:05.071Z,11.87
2022-10-19T00:33:34.449Z,11.86
2022-10-19T00:36:03.556Z,11.82
2022-10-19T00:38:34.734Z,11.82
2022-10-19T00:41:04.782Z,11.79
2022-10-19T00:43:34.180Z,11.75
2022-10-19T00:46:03.328Z,11.73
2022-10-19T00:48:34.249Z,11.74
2022-10-19T00:51:03.930Z,11.68
2022-10-19T00:53:34.738Z,11.67
2022-10-19T00:56:08.895Z,11.64
2022-10-19T00:58:38.394Z,11.62
2022-10-19T01:01:10.551Z,11.60
2022-10-19T01:03:40.550Z,11.60
2022-10-19T01:06:11.401Z,11.57
2022-10-19T01:08:42.008Z,11.58
2022-10-19T01:11:24.313Z,11.59
2022-10-19T01:14:10.791Z,11.61
2022-10-19T01:16:54.770Z,11.66
2022-10-19T01:19:55.978Z,11.64
2022-10-19T01:22:34.831Z,11.65
2022-10-19T01:25:20.782Z,11.70
2022-10-19T01:28:04.524Z,11.71
2022-10-19T01:30:45.904Z,11.73
2022-10-19T01:33:30.399Z,11.73
2022-10-19T01:36:09.680Z,11.71
2022-10-19T01:38:50.323Z,11.72
2022-10-19T01:41:28.216Z,11.75
2022-10-19T01:44:02.943Z,11.82
2022-10-19T01:46:39.204Z,11.85
2022-10-19T01:49:15.191Z,11.83
2022-10-19T01:51:50.713Z,11.85
2022-10-19T01:54:22.663Z,11.84
2022-10-19T01:56:53.563Z,11.82
2022-10-19T01:59:23.784Z,11.82
2022-10-19T02:01:56.041Z,11.80
2022-10-19T02:04:26.768Z,11.79
2022-10-19T02:06:56.733Z,11.73
2022-10-19T02:09:26.287Z,11.67
2022-10-19T02:11:58.008Z,11.66
2022-10-19T02:14:32.113Z,11.64
2022-10-19T02:17:07.186Z,11.57
2022-10-19T02:19:37.679Z,11.52
2022-10-19T02:22:07.476Z,11.51
2022-10-19T02:24:37.015Z,11.50
2022-10-19T02:27:08.502Z,11.50
2022-10-19T02:29:39.796Z,11.48
2022-10-19T02:32:12.221Z,11.44
2022-10-19T02:34:42.483Z,11.48
2022-10-19T02:37:11.974Z,11.53
2022-10-19T02:39:41.969Z,11.52
2022-10-19T02:42:12.745Z,11.53
2022-10-19T02:44:48.649Z,11.55
2022-10-19T02:47:22.905Z,11.53
2022-10-19T02:49:53.258Z,11.52
2022-10-19T02:52:22.381Z,11.51
2022-10-19T02:54:51.597Z,11.50
2022-10-19T02:57:23.064Z,11.49
2022-10-19T02:59:53.409Z,11.50
2022-10-19T03:02:24.392Z,11.48
2022-10-19T03:04:53.735Z,11.50
2022-10-19T03:07:23.402Z,11.51
2022-10-19T03:09:53.003Z,11.48
2022-10-19T03:12:22.183Z,11.46
2022-10-19T03:14:51.888Z,11.45
2022-10-19T03:17:20.972Z,11.43
2022-10-19T03:19:51.689Z,11.42
2022-10-19T03:22:20.841Z,11.42
2022-10-19T03:24:50.301Z,11.41
2022-10-19T03:27:19.514Z,11.42
2022-10-19T03:29:48.759Z,11.40
2022-10-19T03:32:17.950Z,11.39
2022-10-19T03:34:47.104Z,11.37
2022-10-19T03:37:17.612Z,11.37
2022-10-19T03:39:47.073Z,11.34
2022-10-19T03:42:16.294Z,11.32
2022-10-19T03:44:45.582Z,11.31
2022-10-19T03:47:14.706Z,11.31
2022-10-19T03:49:44.814Z,11.32
2022-10-19T03:52:13.952Z,11.32
2022-10-19T03:54:45.000Z,11.30
2022-10-19T03:57:14.667Z,11.29
2022-10-19T03:59:43.996Z,11.29
2022-10-19T04:02:13.158Z,11.28
2022-10-19T04:04:42.543Z,11.28
2022-10-19T04:07:11.627Z,11.28
2022-10-19T04:09:41.473Z,11.27
2022-10-19T04:12:12.336Z,11.28
2022-10-19T04:14:56.357Z,11.29
2022-10-19T04:17:27.195Z,11.31
2022-10-19T04:19:56.612Z,11.30
2022-10-19T04:22:25.824Z,11.30
2022-10-19T04:24:55.883Z,11.29
2022-10-19T04:27:26.421Z,11.28
2022-10-19T04:29:55.813Z,11.29
2022-10-19T04:32:24.972Z,11.27
2022-10-19T04:34:54.411Z,11.28
2022-10-19T04:37:23.566Z,11.26
2022-10-19T04:39:52.965Z,11.22
2022-10-19T04:42:22.077Z,11.20
2022-10-19T04:44:52.848Z,11.18
2022-10-19T04:47:21.933Z,11.18
2022-10-19T04:49:51.342Z,11.16
2022-10-19T04:52:20.484Z,11.14
2022-10-19T04:54:49.761Z,11.13
2022-10-19T04:57:19.001Z,11.15
2022-10-19T04:59:48.194Z,11.15
2022-10-19T05:02:18.708Z,11.14
2022-10-19T05:04:50.320Z,11.12
2022-10-19T05:07:19.536Z,11.10
2022-10-19T05:09:48.698Z,11.08
2022-10-19T05:12:17.801Z,11.07
2022-10-19T05:14:47.308Z,11.03
2022-10-19T05:17:17.806Z,11.01
2022-10-19T05:19:47.251Z,10.99
2022-10-19T05:22:16.362Z,10.96
2022-10-19T05:24:45.690Z,10.91
2022-10-19T05:27:14.936Z,10.90
2022-10-19T05:29:44.249Z,10.85
2022-10-19T05:32:13.467Z,10.83
2022-10-19T05:34:44.294Z,10.80
2022-10-19T05:37:13.535Z,10.78
2022-10-19T05:39:42.881Z,10.76
2022-10-19T05:42:12.079Z,10.76
2022-10-19T05:44:41.498Z,10.75
2022-10-19T05:47:10.922Z,10.73
2022-10-19T05:49:40.232Z,10.71
2022-10-19T05:52:10.803Z,10.70
2022-10-19T05:54:40.218Z,10.69
2022-10-19T05:57:09.459Z,10.66
2022-10-19T05:59:38.787Z,10.65
2022-10-19T06:02:07.948Z,10.64
2022-10-19T06:04:37.614Z,10.63
2022-10-19T06:07:06.718Z,10.62
2022-10-19T06:09:37.539Z,10.61
2022-10-19T06:12:07.084Z,10.60
2022-10-19T06:14:36.512Z,10.60
2022-10-19T06:17:06.748Z,10.60
2022-10-19T06:19:36.209Z,10.60
2022-10-19T06:22:05.540Z,10.59
2022-10-19T06:24:36.446Z,10.59
2022-10-19T06:27:06.742Z,10.58
2022-10-19T06:29:36.504Z,10.57
2022-10-19T06:32:05.721Z,10.60
2022-10-19T06:34:35.067Z,10.61
2022-10-19T06:37:04.257Z,10.62
2022-10-19T06:39:33.539Z,10.60
2022-10-19T06:42:04.075Z,10.56
2022-10-19T06:44:33.485Z,10.55
2022-10-19T06:47:02.653Z,10.54
2022-10-19T06:49:32.211Z,10.53
2022-10-19T06:52:01.423Z,10.53
2022-10-19T06:54:30.813Z,10.52
2022-10-19T06:57:00.593Z,10.51
2022-10-19T06:59:31.469Z,10.49
2022-10-19T07:02:00.798Z,10.50
2022-10-19T07:04:30.542Z,10.50
2022-10-19T07:07:00.517Z,10.52
2022-10-19T07:09:30.011Z,10.54
2022-10-19T07:11:59.166Z,10.55
2022-10-19T07:14:31.642Z,10.54
2022-10-19T07:17:01.558Z,10.58
2022-10-19T07:19:32.430Z,10.58
2022-10-19T07:22:01.689Z,10.60
2022-10-19T07:24:31.157Z,10.61
2022-10-19T07:27:00.335Z,10.62
2022-10-19T07:29:31.067Z,10.62
2022-10-19T07:32:00.325Z,10.62
2022-10-19T07:34:29.870Z,10.61
2022-10-19T07:36:59.059Z,10.62
2022-10-19T07:39:28.536Z,10.62
2022-10-19T07:41:57.772Z,10.65
2022-10-19T07:44:27.907Z,10.65
2022-10-19T07:46:59.291Z,10.66
2022-10-19T07:49:30.213Z,10.67
2022-10-19T07:51:59.319Z,10.66
2022-10-19T07:54:28.947Z,10.64
2022-10-19T07:56:58.076Z,10.65
2022-10-19T07:59:27.632Z,10.66
2022-10-19T08:01:59.311Z,10.64
2022-10-19T08:04:59.103Z,10.61
2022-10-19T08:07:18.260Z,10.62
2022-10-19T08:09:53.330Z,10.63
2022-10-19T08:12:23.090Z,10.63
2022-10-19T08:14:52.410Z,10.66
2022-10-19T08:17:23.290Z,10.72
2022-10-19T08:19:52.710Z,10.73
2022-10-19T08:22:21.811Z,10.74
2022-10-19T08:24:51.496Z,10.77
2022-10-19T08:27:20.595Z,10.81
2022-10-19T08:29:50.034Z,10.83
2022-10-19T08:32:19.723Z,10.87
2022-10-19T08:34:50.571Z,10.90
2022-10-19T08:37:32.549Z,10.92
2022-10-19T08:40:18.029Z,10.94
2022-10-19T08:42:57.155Z,10.95
2022-10-19T08:48:34.023Z,10.97
2022-10-19T08:51:09.309Z,10.98
2022-10-19T08:53:45.128Z,10.98
2022-10-19T08:56:49.356Z,10.99
2022-10-19T08:59:27.276Z,11.02
2022-10-19T09:01:59.403Z,11.03
2022-10-19T09:04:34.001Z,11.04
2022-10-19T09:07:25.443Z,11.06
2022-10-19T09:09:59.472Z,11.07
2022-10-19T09:12:44.223Z,11.09
2022-10-19T09:15:16.647Z,11.09
2022-10-19T09:17:46.418Z,11.10
2022-10-19T09:20:17.051Z,11.10
2022-10-19T09:22:52.179Z,11.13
2022-10-19T09:25:24.147Z,11.18
2022-10-19T09:28:04.725Z,11.20
2022-10-19T09:30:39.541Z,11.20
2022-10-19T09:33:29.647Z,11.21
2022-10-19T09:36:02.262Z,11.21
2022-10-19T09:38:33.600Z,11.19
2022-10-19T09:41:16.819Z,11.21
2022-10-19T09:43:53.589Z,11.22
2022-10-19T09:46:38.872Z,11.28
2022-10-19T09:49:08.636Z,11.34
2022-10-19T09:51:46.362Z,11.39
2022-10-19T09:54:32.395Z,11.45
2022-10-19T09:57:01.851Z,11.50
2022-10-19T09:59:35.044Z,11.52
2022-10-19T10:02:31.554Z,11.55
2022-10-19T10:05:07.628Z,11.55
2022-10-19T10:07:39.610Z,11.54
2022-10-19T10:10:28.093Z,11.53
2022-10-19T10:13:00.926Z,11.52
2022-10-19T10:15:37.710Z,11.54
2022-10-19T10:18:07.152Z,11.55
2022-10-19T10:20:36.396Z,11.58
2022-10-19T10:23:07.216Z,11.60
2022-10-19T10:25:38.858Z,11.64
2022-10-19T10:28:20.625Z,11.66
2022-10-19T10:30:54.699Z,11.65
2022-10-19T10:33:40.751Z,11.65
2022-10-19T10:36:15.068Z,11.63
2022-10-19T10:38:48.613Z,11.61
2022-10-19T10:41:23.224Z,11.58
2022-10-19T10:43:58.515Z,11.58
2022-10-19T10:46:35.801Z,11.57
2022-10-19T10:49:07.772Z,11.59
2022-10-19T10:51:49.196Z,11.61
2022-10-19T10:54:22.846Z,11.63
2022-10-19T10:57:20.381Z,11.61
2022-10-19T10:59:56.464Z,11.60
2022-10-19T11:02:36.809Z,11.60
2022-10-19T11:05:12.193Z,11.61
2022-10-19T11:07:45.766Z,11.62
2022-10-19T11:10:25.548Z,11.62
2022-10-19T11:13:05.984Z,11.62
2022-10-19T11:15:47.240Z,11.61
2022-10-19T11:18:22.697Z,11.63
2022-10-19T11:21:02.406Z,11.63
2022-10-19T11:23:55.338Z,11.63
2022-10-19T11:26:43.019Z,11.61
2022-10-19T11:29:28.950Z,11.57
2022-10-19T11:31:59.370Z,11.55
2022-10-19T11:34:50.139Z,11.53
2022-10-19T11:37:27.597Z,11.56
2022-10-19T11:40:11.959Z,11.59
2022-10-19T11:42:50.973Z,11.59
2022-10-19T11:45:33.573Z,11.60
2022-10-19T11:48:18.345Z,11.63
2022-10-19T11:51:04.106Z,11.65
2022-10-19T11:53:58.692Z,11.68
2022-10-19T11:56:45.037Z,11.72
2022-10-19T11:59:35.757Z,11.73
2022-10-19T12:02:22.627Z,11.75
2022-10-19T12:04:58.569Z,11.77
2022-10-19T12:07:46.473Z,11.77
2022-10-19T12:10:25.896Z,11.82
2022-10-19T12:12:59.639Z,11.84
2022-10-19T12:15:32.706Z,11.87
2022-10-19T12:18:12.791Z,11.87
2022-10-19T12:20:48.438Z,11.83
2022-10-19T12:23:26.053Z,11.78
2022-10-19T12:25:58.606Z,11.73
2022-10-19T12:28:32.196Z,11.73
2022-10-19T12:31:04.013Z,11.69
2022-10-19T12:33:46.465Z,11.65
2022-10-19T12:36:26.557Z,11.67
2022-10-19T12:39:05.705Z,11.65
2022-10-19T12:41:45.855Z,11.65
2022-10-19T12:44:48.134Z,11.68
2022-10-19T12:47:20.749Z,11.73
2022-10-19T12:49:52.863Z,11.77
2022-10-19T12:52:39.306Z,11.81
2022-10-19T12:55:29.812Z,11.80
2022-10-19T12:58:02.940Z,11.81
2022-10-19T13:00:34.647Z,11.79
2022-10-19T13:03:08.204Z,11.77
2022-10-19T13:05:40.155Z,11.75
2022-10-19T13:08:12.352Z,11.71
2022-10-19T13:11:03.706Z,11.67
2022-10-19T13:14:04.879Z,11.64
2022-10-19T13:16:57.589Z,11.62
2022-10-19T13:19:28.247Z,11.62
2022-10-19T13:22:26.975Z,11.62
2022-10-19T13:25:27.157Z,11.68
2022-10-19T13:28:01.307Z,11.76
2022-10-19T13:31:04.975Z,11.89
2022-10-19T13:33:51.090Z,12.05
2022-10-19T13:36:22.112Z,12.22
2022-10-19T13:39:08.597Z,12.47
2022-10-19T13:41:57.296Z,12.75
2022-10-19T13:44:35.517Z,12.95
2022-10-19T13:47:43.614Z,13.06
2022-10-19T13:50:30.401Z,13.09
2022-10-19T13:53:34.111Z,13.07
2022-10-19T13:56:32.656Z,13.01
2022-10-19T13:59:43.608Z,12.90
2022-10-19T14:02:56.922Z,12.79
2022-10-19T14:05:54.522Z,12.71
2022-10-19T14:08:41.869Z,12.66
2022-10-19T14:11:19.199Z,12.69
2022-10-19T14:14:08.057Z,12.68
2022-10-19T14:16:45.999Z,12.63
2022-10-19T14:19:21.056Z,12.55
2022-10-19T14:21:50.520Z,12.47
2022-10-19T14:24:28.846Z,12.38
2022-10-19T14:27:01.570Z,12.28
2022-10-19T14:29:32.519Z,12.19
2022-10-19T14:32:02.012Z,12.13
2022-10-19T14:34:31.631Z,12.04
2022-10-19T14:37:01.259Z,11.97
2022-10-19T14:39:34.267Z,11.94
2022-10-19T14:42:11.093Z,11.91
2022-10-19T14:44:43.217Z,11.88
2022-10-19T14:47:20.547Z,11.86
2022-10-19T14:49:50.425Z,11.82
2022-10-19T14:52:25.515Z,11.77
2022-10-19T14:54:56.963Z,11.70
2022-10-19T14:57:30.982Z,11.61
2022-10-19T15:00:03.257Z,11.52
2022-10-19T15:02:39.990Z,11.43
2022-10-19T15:05:20.404Z,11.33
2022-10-19T15:07:50.355Z,11.23
2022-10-19T15:10:24.280Z,11.12
2022-10-19T15:13:02.623Z,10.98
2022-10-19T15:15:34.867Z,10.89
2022-10-19T15:18:06.797Z,10.75
2022-10-19T15:20:49.290Z,10.63
2022-10-19T15:23:39.513Z,10.50
2022-10-19T15:26:18.367Z,10.38
2022-10-19T15:28:50.218Z,10.27
2022-10-19T15:31:22.070Z,10.18
2022-10-19T15:33:54.372Z,10.09
2022-10-19T15:36:25.537Z,9.99
2022-10-19T15:39:18.460Z,9.89
2022-10-19T15:41:53.736Z,9.77
2022-10-19T15:44:41.570Z,9.67
2022-10-19T15:47:23.291Z,9.57
2022-10-19T15:49:59.265Z,9.48
2022-10-19T15:52:30.161Z,9.41
2022-10-19T15:55:01.495Z,9.35
2022-10-19T15:57:33.695Z,9.29
2022-10-19T16:00:13.581Z,9.24
2022-10-19T16:02:44.285Z,9.20
2022-10-19T16:05:13.288Z,9.19
2022-10-19T16:07:43.151Z,9.15
2022-10-19T16:10:19.818Z,9.13
2022-10-19T16:12:49.324Z,9.11
2022-10-19T16:15:23.493Z,9.11
2022-10-19T16:17:55.401Z,9.07
2022-10-19T16:20:26.312Z,9.06
2022-10-19T16:22:55.876Z,9.02
2022-10-19T16:25:25.156Z,9.01
2022-10-19T16:27:55.327Z,8.99
2022-10-19T16:30:26.374Z,8.97
2022-10-19T16:32:56.146Z,8.94
2022-10-19T16:35:25.527Z,8.90
2022-10-19T16:37:55.074Z,8.86
2022-10-19T16:40:24.674Z,8.82
2022-10-19T16:42:56.727Z,8.80
2022-10-19T16:45:27.460Z,8.77
2022-10-19T16:47:57.131Z,8.73
2022-10-19T16:50:26.646Z,8.73
2022-10-19T16:53:10.199Z,8.72
2022-10-19T16:55:40.713Z,8.70
2022-10-19T16:58:10.212Z,8.70
2022-10-19T17:00:40.948Z,8.68
2022-10-19T17:03:10.282Z,8.68
2022-10-19T17:05:40.352Z,8.68
2022-10-19T17:08:12.043Z,8.69
2022-10-19T17:10:41.378Z,8.68
2022-10-19T17:13:10.718Z,8.70
2022-10-19T17:15:43.280Z,8.70
2022-10-19T17:18:13.122Z,8.67
2022-10-19T17:20:42.488Z,8.65
2022-10-19T17:23:11.606Z,8.61
2022-10-19T17:25:49.033Z,8.58
2022-10-19T17:28:18.474Z,8.51
2022-10-19T17:30:49.241Z,8.47
2022-10-19T17:33:19.669Z,8.42
2022-10-19T17:35:48.991Z,8.37
2022-10-19T17:38:18.254Z,8.34
2022-10-19T17:40:47.536Z,8.32
2022-10-19T17:43:17.134Z,8.31
2022-10-19T17:45:47.711Z,8.30
2022-10-19T17:48:17.421Z,8.29
2022-10-19T17:50:46.631Z,8.26
2022-10-19T17:53:15.933Z,8.25
2022-10-19T17:55:45.781Z,8.24
2022-10-19T17:58:15.388Z,8.24
2022-10-19T18:00:44.553Z,8.20
2022-10-19T18:03:15.415Z,8.16
2022-10-19T18:05:44.636Z,8.15
2022-10-19T18:08:13.931Z,8.16
2022-10-19T18:10:43.435Z,8.17
2022-10-19T18:13:12.521Z,8.17
2022-10-19T18:15:41.825Z,8.16
2022-10-19T18:18:11.127Z,8.15
2022-10-19T18:20:42.651Z,8.14
2022-10-19T18:23:12.390Z,8.14
2022-10-19T18:25:53.821Z,8.13
2022-10-19T18:28:24.041Z,8.11
2022-10-19T18:30:53.239Z,8.09
2022-10-19T18:33:23.490Z,8.08
2022-10-19T18:35:58.643Z,8.06
2022-10-19T18:38:28.265Z,8.03
2022-10-19T18:41:01.827Z,8.00
2022-10-19T18:43:31.835Z,8.00
2022-10-19T18:46:01.903Z,7.97
2022-10-19T18:48:31.993Z,7.94
2022-10-19T18:51:06.247Z,7.89
2022-10-19T18:53:36.826Z,7.89
2022-10-19T18:56:09.488Z,7.86
2022-10-19T18:58:39.534Z,7.84
2022-10-19T19:01:11.262Z,7.83
2022-10-19T19:03:42.362Z,7.84
2022-10-19T19:06:15.251Z,7.80
2022-10-19T19:08:45.857Z,7.79
2022-10-19T19:11:16.993Z,7.78
2022-10-19T19:13:50.636Z,7.78
2022-10-19T19:16:20.103Z,7.77
2022-10-19T19:18:49.691Z,7.77
2022-10-19T19:21:23.325Z,7.74
2022-10-19T19:23:53.905Z,7.76
2022-10-19T19:26:26.482Z,7.76
2022-10-19T19:28:57.287Z,7.75
2022-10-19T19:31:27.238Z,7.74
2022-10-19T19:33:56.983Z,7.73
2022-10-19T19:36:28.529Z,7.71
2022-10-19T19:38:59.196Z,7.69
2022-10-19T19:41:29.230Z,7.67
2022-10-19T19:43:59.051Z,7.65
2022-10-19T19:46:28.112Z,7.61
2022-10-19T19:49:02.386Z,7.59
2022-10-19T19:51:34.204Z,7.55
2022-10-19T19:54:04.069Z,7.51
2022-10-19T19:56:33.275Z,7.48
2022-10-19T19:59:04.573Z,7.42
2022-10-19T20:01:35.886Z,7.38
2022-10-19T20:04:06.301Z,7.33
2022-10-19T20:06:38.756Z,7.29
2022-10-19T20:09:10.783Z,7.24
2022-10-19T20:11:42.741Z,7.17
2022-10-19T20:14:12.679Z,7.12
2022-10-19T20:16:41.998Z,7.07
2022-10-19T20:19:14.131Z,7.02
2022-10-19T20:21:45.814Z,6.96
2022-10-19T20:24:15.396Z,6.91
2022-10-19T20:26:44.517Z,6.85
2022-10-19T20:29:14.104Z,6.80
2022-10-19T20:31:43.324Z,6.74
2022-10-19T20:34:14.332Z,6.70
2022-10-19T20:36:45.301Z,6.64
2022-10-19T20:39:15.219Z,6.58
2022-10-19T20:41:44.497Z,6.55
2022-10-19T20:44:13.811Z,6.51
2022-10-19T20:46:43.270Z,6.47
2022-10-19T20:49:13.886Z,6.42
2022-10-19T20:51:43.304Z,6.40
2022-10-19T20:54:14.603Z,6.37
2022-10-19T20:56:44.083Z,6.37
2022-10-19T20:59:14.530Z,6.34
2022-10-19T21:01:45.382Z,6.32
2022-10-19T21:04:17.059Z,6.32
2022-10-19T21:06:48.088Z,6.30
2022-10-19T21:09:21.168Z,6.31
2022-10-19T21:11:52.412Z,6.33
2022-10-19T21:14:27.147Z,6.33
2022-10-19T21:16:58.886Z,6.34
2022-10-19T21:19:30.942Z,6.35
2022-10-19T21:22:03.337Z,6.36
2022-10-19T21:24:36.753Z,6.37
2022-10-19T21:27:09.287Z,6.38
2022-10-19T21:29:39.194Z,6.39
2022-10-19T21:32:08.312Z,6.39
2022-10-19T21:34:37.782Z,6.41
2022-10-19T21:37:06.908Z,6.41
2022-10-19T21:39:39.570Z,6.42
2022-10-19T21:42:08.817Z,6.43
2022-10-19T21:44:38.111Z,6.43
2022-10-19T21:47:07.975Z,6.44
2022-10-19T21:49:37.512Z,6.44
2022-10-19T21:52:06.941Z,6.46
2022-10-19T21:54:37.580Z,6.46
2022-10-19T21:57:06.796Z,6.45
2022-10-19T21:59:36.131Z,6.45
2022-10-19T22:02:05.487Z,6.46
2022-10-19T22:04:34.800Z,6.46
2022-10-19T22:07:05.264Z,6.47
2022-10-19T22:09:34.850Z,6.47
2022-10-19T22:12:05.575Z,6.47
2022-10-19T22:14:35.062Z,6.49
2022-10-19T22:17:04.186Z,6.48
2022-10-19T22:19:33.690Z,6.49
2022-10-19T22:22:03.192Z,6.49
2022-10-19T22:24:32.305Z,6.49
2022-10-19T22:27:01.552Z,6.49
2022-10-19T22:29:32.670Z,6.49
2022-10-19T22:32:01.988Z,6.48
2022-10-19T22:34:32.345Z,6.48
2022-10-19T22:37:01.631Z,6.49
2022-10-19T22:39:31.149Z,6.49
2022-10-19T22:42:00.402Z,6.48
2022-10-19T22:44:31.213Z,6.47
2022-10-19T22:47:00.926Z,6.46
2022-10-19T22:49:30.276Z,6.44
2022-10-19T22:51:59.220Z,6.43
2022-10-19T22:54:28.423Z,6.42
2022-10-19T22:56:57.816Z,6.41
2022-10-19T22:59:27.138Z,6.41
2022-10-19T23:01:58.023Z,6.37
2022-10-19T23:04:27.376Z,6.37
2022-10-19T23:06:56.508Z,6.36
2022-10-19T23:09:25.716Z,6.33
2022-10-19T23:11:54.926Z,6.34
2022-10-19T23:14:24.141Z,6.32
2022-10-19T23:16:53.226Z,6.32
2022-10-19T23:19:23.983Z,6.29
2022-10-19T23:21:53.084Z,6.27
2022-10-19T23:24:22.460Z,6.25
2022-10-19T23:26:53.598Z,6.26
2022-10-19T23:29:23.156Z,6.25
2022-10-19T23:31:52.184Z,6.24
2022-10-19T23:34:22.879Z,6.24
2022-10-19T23:36:51.874Z,6.25
2022-10-19T23:39:21.045Z,6.26
2022-10-19T23:41:50.050Z,6.27
2022-10-19T23:44:19.403Z,6.28
2022-10-19T23:46:48.410Z,6.30
2022-10-19T23:49:17.634Z,6.32
2022-10-19T23:51:48.102Z,6.32
2022-10-19T23:54:17.399Z,6.35
2022-10-19T23:56:46.363Z,6.35
2022-10-19T23:59:15.804Z,6.35
